Time;durP1;ratioP1;P1;durP2;ratioP2;P2;SDS_P1;SDS_P2;PMS_P1;PMS_P2;Temp;Humidity;BMP_temperature;BMP_pressure;BME280_temperature;BME280_humidity;BME280_pressure;Samples;Min_cycle;Max_cycle;Signal;HPM_P1;HPM_P2
2021/12/06 00:02:03;;;;;;;39.90;23.13;;;6.60;99.90;;;;;;5068240;28;20291;-72
2021/12/06 00:04:36;;;;;;;42.08;22.27;;;6.40;99.90;;;;;;5070519;28;20186;-71
2021/12/06 00:07:08;;;;;;;39.72;21.75;;;6.30;99.90;;;;;;5069959;28;20187;-72
2021/12/06 00:09:34;;;;;;;49.08;22.90;;;6.20;99.90;;;;;;5070824;28;20238;-71
2021/12/06 00:12:01;;;;;;;37.97;22.02;;;6.20;99.90;;;;;;5069466;28;20275;-71
2021/12/06 00:14:30;;;;;;;41.42;22.58;;;6.10;99.90;;;;;;5070291;28;20208;-73
2021/12/06 00:17:00;;;;;;;50.13;29.20;;;6.00;99.90;;;;;;5067591;28;20407;-71
2021/12/06 00:19:27;;;;;;;59.65;30.95;;;6.40;99.90;;;;;;5068677;28;20403;-71
2021/12/06 00:21:54;;;;;;;52.45;31.27;;;6.70;99.90;;;;;;5066428;28;20415;-73
2021/12/06 00:24:20;;;;;;;51.58;31.13;;;6.80;99.90;;;;;;5068783;28;20489;-74
2021/12/06 00:26:46;;;;;;;54.88;31.70;;;6.90;99.90;;;;;;5067858;28;20411;-72
2021/12/06 00:29:12;;;;;;;55.67;32.38;;;7.00;99.90;;;;;;5068442;28;20431;-72
2021/12/06 00:31:38;;;;;;;59.03;32.55;;;7.10;99.90;;;;;;5066563;28;20562;-72
2021/12/06 00:34:10;;;;;;;62.22;33.65;;;7.10;99.90;;;;;;5067385;28;20476;-71
2021/12/06 00:36:39;;;;;;;53.92;32.25;;;7.20;99.90;;;;;;5067414;28;20493;-71
2021/12/06 00:39:08;;;;;;;54.47;32.40;;;7.30;99.90;;;;;;5068623;28;20435;-70
2021/12/06 00:41:34;;;;;;;46.40;29.95;;;7.30;99.90;;;;;;5041273;28;21159;-71
2021/12/06 00:44:02;;;;;;;55.78;32.40;;;7.30;99.90;;;;;;5050379;28;20919;-70
2021/12/06 00:46:28;;;;;;;53.90;32.77;;;7.40;99.90;;;;;;5063152;28;20464;-71
2021/12/06 00:48:54;;;;;;;57.50;32.95;;;7.40;99.90;;;;;;5081909;28;20475;-72
2021/12/06 00:51:19;;;;;;;56.90;33.63;;;7.50;99.90;;;;;;5063747;28;20403;-70
2021/12/06 00:53:45;;;;;;;58.77;33.83;;;7.50;99.90;;;;;;5060916;28;20502;-71
2021/12/06 00:56:12;;;;;;;59.35;33.95;;;7.50;99.90;;;;;;5065319;28;20903;-70
2021/12/06 00:58:40;;;;;;;59.42;34.20;;;7.60;99.90;;;;;;5062546;28;20522;-70
2021/12/06 01:01:07;;;;;;;56.83;33.83;;;7.60;99.90;;;;;;5049217;28;20403;-71
2021/12/06 01:03:35;;;;;;;57.42;35.03;;;7.60;99.90;;;;;;5047596;28;20912;-70
2021/12/06 01:06:02;;;;;;;56.13;33.72;;;7.60;99.90;;;;;;5067239;28;20414;-72
2021/12/06 01:08:28;;;;;;;56.20;33.28;;;7.70;99.90;;;;;;5045080;28;20490;-68
2021/12/06 01:10:55;;;;;;;56.38;33.95;;;7.60;99.90;;;;;;5045236;28;20487;-72
2021/12/06 01:13:25;;;;;;;64.07;35.15;;;7.70;99.90;;;;;;5045156;28;20407;-72
2021/12/06 01:15:52;;;;;;;55.00;33.75;;;7.70;99.90;;;;;;5066411;28;20402;-72
2021/12/06 01:18:19;;;;;;;60.13;34.60;;;7.70;99.90;;;;;;5064387;28;20833;-72
2021/12/06 01:21:42;;;;;;;55.00;34.00;;;7.70;99.90;;;;;;5077719;28;20510;-69
2021/12/06 01:31:45;;;;;;;61.47;35.45;;;7.80;99.90;;;;;;5077450;28;20421;-71
2021/12/06 01:39:47;;;;;;;61.47;34.30;;;7.80;99.90;;;;;;5053507;28;20418;-71
2021/12/06 01:42:14;;;;;;;57.95;34.22;;;7.80;99.90;;;;;;5064715;28;20399;-71
2021/12/06 01:44:45;;;;;;;63.65;36.33;;;7.80;99.90;;;;;;5067136;28;21567;-73
2021/12/06 01:47:29;;;;;;;58.53;35.28;;;7.80;99.90;;;;;;5067711;28;20419;-69
2021/12/06 01:50:10;;;;;;;61.92;34.22;;;7.80;99.90;;;;;;5066672;28;20823;-70
2021/12/06 01:52:46;;;;;;;58.20;34.55;;;7.80;99.90;;;;;;5065853;28;20928;-72
2021/12/06 01:55:16;;;;;;;55.83;34.83;;;7.80;99.90;;;;;;5066338;28;20406;-71
2021/12/06 01:57:42;;;;;;;56.20;35.08;;;7.80;99.90;;;;;;5066848;28;20425;-70
2021/12/06 02:00:26;;;;;;;61.13;36.22;;;7.80;99.90;;;;;;5065842;28;20454;-71
2021/12/06 02:02:57;;;;;;;64.05;34.72;;;7.70;99.90;;;;;;5065088;28;20507;-70
2021/12/06 02:05:29;;;;;;;57.30;35.05;;;7.80;99.90;;;;;;5066762;28;20442;-69
2021/12/06 02:07:56;;;;;;;61.08;35.58;;;7.80;99.90;;;;;;5065752;28;20411;-70
2021/12/06 02:10:23;;;;;;;60.60;34.78;;;7.70;99.90;;;;;;5067382;28;20984;-70
2021/12/06 02:12:53;;;;;;;64.68;36.28;;;7.80;99.90;;;;;;5064703;28;20414;-70
2021/12/06 02:15:39;;;;;;;61.50;35.78;;;7.70;99.90;;;;;;5066873;28;20803;-69
2021/12/06 02:18:15;;;;;;;57.08;34.05;;;7.80;99.90;;;;;;5064179;28;20415;-71
2021/12/06 02:20:58;;;;;;;53.70;32.17;;;7.70;99.90;;;;;;5065661;28;20399;-70
2021/12/06 02:23:25;;;;;;;53.40;32.70;;;7.70;99.90;;;;;;5065092;28;20412;-70
2021/12/06 02:25:50;;;;;;;55.83;33.50;;;7.70;99.90;;;;;;5066396;28;20419;-71
2021/12/06 02:28:16;;;;;;;54.40;33.15;;;7.70;99.90;;;;;;5065204;28;20749;-71
2021/12/06 02:30:42;;;;;;;57.40;34.60;;;7.70;99.90;;;;;;5066702;28;20423;-71
2021/12/06 02:33:08;;;;;;;53.30;34.15;;;7.70;99.90;;;;;;5065143;28;20418;-71
2021/12/06 02:35:34;;;;;;;51.47;30.93;;;7.70;99.90;;;;;;5066720;28;20407;-70
2021/12/06 02:38:07;;;;;;;54.95;32.70;;;7.70;99.90;;;;;;5066872;28;20412;-70
2021/12/06 02:40:36;;;;;;;54.22;32.53;;;7.70;99.90;;;;;;5075105;28;20423;-70
2021/12/06 02:43:06;;;;;;;54.38;32.78;;;7.60;99.90;;;;;;5061166;28;20415;-72
2021/12/06 02:45:32;;;;;;;50.42;31.92;;;7.60;99.90;;;;;;5065636;28;20482;-71
2021/12/06 02:48:02;;;;;;;53.25;32.22;;;7.60;99.90;;;;;;5065252;28;20461;-72
2021/12/06 02:50:49;;;;;;;53.65;32.17;;;7.60;99.90;;;;;;5065338;28;20407;-69
2021/12/06 02:53:17;;;;;;;56.87;33.10;;;7.60;99.90;;;;;;5064397;28;20414;-72
2021/12/06 02:55:44;;;;;;;50.33;30.63;;;7.50;99.90;;;;;;5066348;28;20403;-71
2021/12/06 02:58:22;;;;;;;50.47;32.30;;;7.50;99.90;;;;;;5064198;28;20955;-70
2021/12/06 03:00:52;;;;;;;52.77;32.80;;;7.50;99.90;;;;;;5065912;28;20395;-72
2021/12/06 03:03:19;;;;;;;55.53;32.53;;;7.50;99.90;;;;;;5070175;28;20406;-71
2021/12/06 03:05:50;;;;;;;51.47;31.20;;;7.50;99.90;;;;;;5065209;28;20453;-71
2021/12/06 03:08:33;;;;;;;57.53;33.23;;;7.50;99.90;;;;;;5064682;28;20561;-70
2021/12/06 03:10:59;;;;;;;52.15;31.45;;;7.50;99.90;;;;;;5067461;28;20407;-71
2021/12/06 03:13:24;;;;;;;51.05;30.13;;;7.50;99.90;;;;;;5075463;28;20485;-71
2021/12/06 03:15:50;;;;;;;51.97;31.87;;;7.50;99.90;;;;;;5067471;28;20449;-71
2021/12/06 03:18:16;;;;;;;55.70;32.58;;;7.40;99.90;;;;;;5065369;28;20422;-72
2021/12/06 03:20:42;;;;;;;59.20;32.88;;;7.40;99.90;;;;;;5064193;28;20776;-70
2021/12/06 03:23:07;;;;;;;57.47;32.63;;;7.30;99.90;;;;;;5065053;28;20437;-71
2021/12/06 03:25:33;;;;;;;58.50;33.53;;;7.40;99.90;;;;;;5065592;28;20403;-71
2021/12/06 03:28:03;;;;;;;61.80;35.03;;;7.30;99.90;;;;;;5063287;28;20400;-71
2021/12/06 03:30:30;;;;;;;63.75;35.80;;;7.30;99.90;;;;;;5069229;28;20407;-70
2021/12/06 03:32:57;;;;;;;61.90;35.00;;;7.40;99.90;;;;;;5067799;28;20416;-72
2021/12/06 03:35:23;;;;;;;65.18;34.03;;;7.40;99.90;;;;;;5069603;28;20406;-72
2021/12/06 03:37:49;;;;;;;64.07;35.85;;;7.30;99.90;;;;;;5068328;28;20943;-70
2021/12/06 03:40:16;;;;;;;65.22;36.28;;;7.40;99.90;;;;;;5068246;28;20407;-71
2021/12/06 03:42:43;;;;;;;61.22;35.25;;;7.40;99.90;;;;;;5068162;28;20418;-71
2021/12/06 03:45:11;;;;;;;64.57;35.38;;;7.40;99.90;;;;;;5068052;28;20394;-72
2021/12/06 03:47:38;;;;;;;65.93;35.60;;;7.30;99.90;;;;;;5067449;28;20404;-72
2021/12/06 03:50:07;;;;;;;66.63;35.97;;;7.30;99.90;;;;;;5068990;28;20504;-70
2021/12/06 03:52:34;;;;;;;63.67;36.45;;;7.30;99.90;;;;;;5067049;28;20425;-70
2021/12/06 03:55:05;;;;;;;70.47;36.63;;;7.30;99.90;;;;;;5066725;28;20415;-71
2021/12/06 03:57:33;;;;;;;78.55;38.15;;;7.20;99.90;;;;;;5067344;28;20909;-70
2021/12/06 04:00:00;;;;;;;73.45;37.03;;;7.20;99.90;;;;;;5067345;28;20423;-71
2021/12/06 04:02:29;;;;;;;70.10;36.78;;;7.20;99.90;;;;;;5067236;28;20924;-72
2021/12/06 04:04:56;;;;;;;71.22;37.42;;;7.20;99.90;;;;;;5052614;28;20418;-70
2021/12/06 04:07:24;;;;;;;73.97;37.95;;;7.20;99.90;;;;;;5068045;28;20423;-69
2021/12/06 04:09:50;;;;;;;72.17;37.47;;;7.20;99.90;;;;;;5068844;28;20482;-71
2021/12/06 04:12:18;;;;;;;71.67;36.67;;;7.10;99.90;;;;;;5065743;28;20934;-69
2021/12/06 04:14:44;;;;;;;73.40;38.90;;;7.10;99.90;;;;;;5085400;28;20756;-71
2021/12/06 04:17:12;;;;;;;78.10;39.55;;;7.10;99.90;;;;;;5072872;28;20439;-71
2021/12/06 04:19:41;;;;;;;80.55;38.95;;;7.10;99.90;;;;;;5067431;28;20403;-70
2021/12/06 04:22:08;;;;;;;77.57;40.20;;;7.10;99.90;;;;;;5067482;28;20400;-70
2021/12/06 04:24:34;;;;;;;77.07;39.13;;;7.20;99.90;;;;;;5068307;28;20407;-71
2021/12/06 04:27:12;;;;;;;76.82;39.13;;;7.20;99.90;;;;;;5066536;28;20417;-72
2021/12/06 04:29:41;;;;;;;77.95;39.20;;;7.20;99.90;;;;;;5067272;28;20402;-71
2021/12/06 04:32:09;;;;;;;73.72;38.42;;;7.10;99.90;;;;;;5066632;28;20409;-71
2021/12/06 04:34:35;;;;;;;78.22;38.55;;;7.10;99.90;;;;;;5068144;28;20916;-71
2021/12/06 04:37:00;;;;;;;75.57;38.23;;;7.10;99.90;;;;;;5066406;28;20450;-71
2021/12/06 04:39:26;;;;;;;71.55;38.33;;;7.10;99.90;;;;;;5068109;28;20411;-71
2021/12/06 04:41:53;;;;;;;79.30;38.47;;;7.00;99.90;;;;;;5067546;28;20407;-71
2021/12/06 04:44:20;;;;;;;70.72;38.13;;;7.00;99.90;;;;;;5068095;28;20415;-70
2021/12/06 04:46:47;;;;;;;75.78;38.00;;;6.90;99.90;;;;;;5065777;28;20495;-71
2021/12/06 04:49:14;;;;;;;75.67;38.90;;;6.90;99.90;;;;;;5069504;28;21162;-69
2021/12/06 04:51:44;;;;;;;80.60;39.72;;;6.80;99.90;;;;;;5067698;28;20422;-70
2021/12/06 04:54:11;;;;;;;75.80;39.30;;;6.80;99.90;;;;;;5066554;28;20411;-70
2021/12/06 04:56:44;;;;;;;78.07;38.93;;;6.80;99.90;;;;;;5066456;28;20421;-71
2021/12/06 04:59:30;;;;;;;76.83;38.60;;;6.70;99.90;;;;;;5067008;28;20495;-70
2021/12/06 05:02:01;;;;;;;84.78;39.80;;;6.70;99.90;;;;;;5065124;28;20446;-72
2021/12/06 05:04:30;;;;;;;85.38;39.30;;;6.70;99.90;;;;;;5066814;28;20412;-69
2021/12/06 05:07:02;;;;;;;85.78;40.13;;;6.60;99.90;;;;;;5065714;28;20457;-70
2021/12/06 05:09:32;;;;;;;89.78;40.90;;;6.60;99.90;;;;;;5067579;28;20389;-70
2021/12/06 05:11:59;;;;;;;89.90;41.78;;;6.60;99.90;;;;;;5066298;28;20400;-69
2021/12/06 05:14:25;;;;;;;84.60;41.15;;;6.60;99.90;;;;;;5067298;28;20403;-71
2021/12/06 05:16:53;;;;;;;83.60;40.40;;;6.50;99.90;;;;;;5065705;28;20462;-69
2021/12/06 05:19:21;;;;;;;85.85;39.63;;;6.50;99.90;;;;;;5066416;28;20411;-72
2021/12/06 05:21:47;;;;;;;85.38;40.92;;;6.50;99.90;;;;;;5066046;28;20415;-72
2021/12/06 05:24:15;;;;;;;89.72;39.65;;;6.50;99.90;;;;;;5066828;28;20959;-71
2021/12/06 05:26:42;;;;;;;84.83;40.90;;;6.50;99.90;;;;;;5064834;28;20434;-71
2021/12/06 05:29:14;;;;;;;85.00;40.15;;;6.40;99.90;;;;;;5082113;28;20781;-70
2021/12/06 05:31:41;;;;;;;86.65;40.25;;;6.40;99.90;;;;;;5063548;28;21124;-69
2021/12/06 05:34:15;;;;;;;86.40;40.30;;;6.40;99.90;;;;;;5065420;28;20495;-70
2021/12/06 05:36:42;;;;;;;88.67;40.20;;;6.40;99.90;;;;;;5076480;28;20498;-70
2021/12/06 05:39:08;;;;;;;92.18;41.55;;;6.40;99.90;;;;;;5066753;28;20399;-71
2021/12/06 05:41:35;;;;;;;92.47;41.65;;;6.40;99.90;;;;;;5062672;28;20915;-69
2021/12/06 05:44:01;;;;;;;105.15;41.95;;;6.40;99.90;;;;;;5067154;28;20423;-70
2021/12/06 05:46:27;;;;;;;94.67;41.60;;;6.40;99.90;;;;;;5062823;28;20455;-70
2021/12/06 05:48:52;;;;;;;133.95;43.50;;;6.40;99.90;;;;;;5063702;28;20413;-69
2021/12/06 05:51:19;;;;;;;129.13;42.97;;;6.40;99.90;;;;;;5058945;28;20487;-70
2021/12/06 05:53:45;;;;;;;111.03;43.15;;;6.40;99.90;;;;;;5062729;28;20415;-72
2021/12/06 05:56:10;;;;;;;121.70;43.47;;;6.40;99.90;;;;;;5043994;28;20470;-69
2021/12/06 05:58:37;;;;;;;103.28;44.85;;;6.40;99.90;;;;;;5062969;28;20787;-68
2021/12/06 06:01:04;;;;;;;115.22;43.70;;;6.40;99.90;;;;;;5048640;28;20414;-71
2021/12/06 06:03:29;;;;;;;122.75;41.78;;;6.40;99.90;;;;;;5057038;28;20796;-70
2021/12/06 06:05:55;;;;;;;125.45;44.17;;;6.40;99.90;;;;;;5060472;28;20421;-72
2021/12/06 06:08:22;;;;;;;99.97;42.63;;;6.50;99.90;;;;;;5056514;28;20407;-72
2021/12/06 06:10:50;;;;;;;131.63;44.17;;;6.50;99.90;;;;;;5063052;28;20479;-70
2021/12/06 06:13:17;;;;;;;105.65;43.65;;;6.50;99.90;;;;;;5044196;28;20979;-70
2021/12/06 06:15:43;;;;;;;104.43;44.45;;;6.50;99.90;;;;;;5064922;28;20498;-72
2021/12/06 06:18:09;;;;;;;104.97;43.67;;;6.50;99.90;;;;;;5043424;28;20807;-69
2021/12/06 06:20:50;;;;;;;108.68;43.97;;;6.50;99.90;;;;;;5035910;28;20414;-71
2021/12/06 06:23:16;;;;;;;106.10;44.33;;;6.50;99.90;;;;;;5037439;28;20829;-73
2021/12/06 06:25:42;;;;;;;106.20;44.78;;;6.50;99.90;;;;;;5060492;28;20415;-72
2021/12/06 06:28:08;;;;;;;100.60;44.77;;;6.60;99.90;;;;;;5058720;28;20747;-72
2021/12/06 06:30:34;;;;;;;103.90;44.08;;;6.60;99.90;;;;;;5061218;28;20760;-70
2021/12/06 06:33:00;;;;;;;98.32;44.47;;;6.60;99.90;;;;;;5059866;28;20454;-72
2021/12/06 06:35:26;;;;;;;103.78;44.22;;;6.60;99.90;;;;;;5065328;28;20486;-71
2021/12/06 06:37:52;;;;;;;100.38;43.38;;;6.70;99.90;;;;;;5059233;28;20575;-70
2021/12/06 06:40:18;;;;;;;95.88;43.38;;;6.70;99.90;;;;;;5057608;28;20427;-72
2021/12/06 06:42:45;;;;;;;97.97;43.60;;;6.70;99.90;;;;;;5066225;28;20884;-72
2021/12/06 06:45:14;;;;;;;111.10;43.83;;;6.70;99.90;;;;;;5065901;28;20445;-71
2021/12/06 06:47:40;;;;;;;101.30;44.57;;;6.70;99.90;;;;;;5066355;28;20864;-71
2021/12/06 06:50:07;;;;;;;112.82;44.50;;;6.60;99.90;;;;;;5064777;28;20402;-72
2021/12/06 06:52:33;;;;;;;118.10;44.35;;;6.60;99.90;;;;;;5066418;28;20407;-71
2021/12/06 06:55:00;;;;;;;130.13;44.88;;;6.60;99.90;;;;;;5065829;28;20407;-72
2021/12/06 06:57:26;;;;;;;130.73;45.33;;;6.60;99.90;;;;;;5065803;28;20408;-72
2021/12/06 06:59:51;;;;;;;164.80;44.77;;;6.60;99.90;;;;;;5074700;28;20768;-72
2021/12/06 07:02:17;;;;;;;177.63;45.10;;;6.50;99.90;;;;;;5066246;28;20439;-74
2021/12/06 07:04:43;;;;;;;169.63;45.17;;;6.50;99.90;;;;;;5075770;28;20825;-74
2021/12/06 07:07:09;;;;;;;124.43;45.97;;;6.40;99.90;;;;;;5078962;28;20408;-73
2021/12/06 07:09:35;;;;;;;112.78;46.05;;;6.40;99.90;;;;;;5079547;28;20416;-73
2021/12/06 07:12:01;;;;;;;115.07;47.90;;;6.40;99.90;;;;;;5071977;28;20866;-74
2021/12/06 07:14:27;;;;;;;114.25;45.78;;;6.40;99.90;;;;;;5068903;28;20439;-70
2021/12/06 07:16:53;;;;;;;114.53;45.15;;;6.40;99.90;;;;;;5074818;28;20443;-72
2021/12/06 07:19:18;;;;;;;172.80;45.53;;;6.40;99.90;;;;;;5069766;28;20411;-73
2021/12/06 07:21:44;;;;;;;211.93;44.73;;;6.30;99.90;;;;;;5068889;28;20413;-71
2021/12/06 07:24:10;;;;;;;224.20;46.75;;;6.30;99.90;;;;;;5069509;28;20411;-73
2021/12/06 07:26:36;;;;;;;174.55;45.72;;;6.20;99.90;;;;;;5069508;28;20412;-71
2021/12/06 07:29:03;;;;;;;387.75;46.42;;;6.20;99.90;;;;;;5067265;28;20399;-72
2021/12/06 07:31:29;;;;;;;434.95;45.22;;;6.20;99.90;;;;;;5069670;28;20399;-71
2021/12/06 07:33:54;;;;;;;353.67;42.75;;;6.10;99.90;;;;;;5071270;28;20411;-74
2021/12/06 07:36:23;;;;;;;401.93;45.97;;;6.10;99.90;;;;;;5069623;28;20411;-71
2021/12/06 07:38:50;;;;;;;338.85;44.22;;;6.00;99.90;;;;;;5072255;28;20406;-72
2021/12/06 07:41:20;;;;;;;393.60;44.85;;;6.00;99.90;;;;;;5068359;28;20415;-72
2021/12/06 07:43:46;;;;;;;445.27;44.63;;;6.00;99.90;;;;;;5065728;28;20415;-71
2021/12/06 07:46:12;;;;;;;317.05;44.72;;;6.00;99.90;;;;;;5064998;28;20403;-72
2021/12/06 07:48:39;;;;;;;251.30;43.97;;;6.00;99.90;;;;;;5067442;28;20498;-73
2021/12/06 07:51:07;;;;;;;302.58;44.42;;;5.90;99.90;;;;;;5048284;28;20423;-73
2021/12/06 07:53:35;;;;;;;388.13;45.63;;;5.90;99.90;;;;;;5066413;28;20410;-72
2021/12/06 07:56:01;;;;;;;271.50;45.57;;;5.90;99.90;;;;;;5068924;28;20434;-74
2021/12/06 07:58:27;;;;;;;294.00;45.10;;;5.90;99.90;;;;;;5064406;28;20469;-72
2021/12/06 08:00:53;;;;;;;229.98;46.30;;;5.90;99.90;;;;;;5068678;28;20411;-74
2021/12/06 08:03:22;;;;;;;232.87;47.37;;;5.90;99.90;;;;;;5045057;28;20492;-73
2021/12/06 08:05:51;;;;;;;249.18;46.25;;;6.00;99.90;;;;;;5062547;28;20407;-73
2021/12/06 08:08:22;;;;;;;237.40;47.85;;;6.00;99.90;;;;;;5066314;28;20411;-72
2021/12/06 08:10:50;;;;;;;328.52;46.10;;;6.00;99.90;;;;;;5057082;28;20401;-72
2021/12/06 08:13:19;;;;;;;260.47;47.30;;;6.00;99.90;;;;;;5064356;28;21106;-71
2021/12/06 08:15:46;;;;;;;189.88;44.45;;;6.00;99.90;;;;;;5039124;28;20873;-73
2021/12/06 08:18:12;;;;;;;326.67;45.25;;;6.00;99.90;;;;;;5068332;28;20760;-73
2021/12/06 08:20:38;;;;;;;158.10;46.93;;;6.00;99.90;;;;;;5038378;28;20541;-72
2021/12/06 08:23:06;;;;;;;313.35;45.97;;;6.00;99.90;;;;;;5066762;28;20436;-74
2021/12/06 08:25:32;;;;;;;433.17;46.63;;;6.00;99.90;;;;;;5065264;28;20425;-71
2021/12/06 08:27:58;;;;;;;261.48;46.55;;;6.00;99.90;;;;;;5066735;28;20481;-72
2021/12/06 08:30:25;;;;;;;302.20;44.70;;;6.00;99.90;;;;;;5046141;28;20438;-73
2021/12/06 08:32:56;;;;;;;328.38;46.55;;;6.00;99.90;;;;;;5060682;28;20503;-74
2021/12/06 08:35:22;;;;;;;323.27;47.22;;;6.00;99.90;;;;;;5065279;28;20419;-71
2021/12/06 08:37:48;;;;;;;238.17;46.80;;;5.90;99.90;;;;;;5051115;28;20404;-75
2021/12/06 08:40:16;;;;;;;173.50;47.33;;;5.90;99.90;;;;;;5073500;28;20441;-70
2021/12/06 08:42:42;;;;;;;236.40;45.75;;;5.90;99.90;;;;;;5068999;28;20518;-74
2021/12/06 08:45:10;;;;;;;142.05;46.35;;;5.90;99.90;;;;;;5068095;28;20408;-74
2021/12/06 08:47:39;;;;;;;233.13;47.80;;;5.90;99.90;;;;;;5082125;28;20424;-74
2021/12/06 08:50:07;;;;;;;205.55;47.15;;;5.90;99.90;;;;;;5077714;28;20407;-74
2021/12/06 08:52:33;;;;;;;172.15;47.78;;;5.90;99.90;;;;;;5071371;28;20472;-72
2021/12/06 08:54:59;;;;;;;149.05;47.50;;;5.90;99.90;;;;;;5079216;28;20420;-74
2021/12/06 08:57:25;;;;;;;124.65;48.13;;;5.90;99.90;;;;;;5070707;28;20785;-72
2021/12/06 08:59:52;;;;;;;131.77;47.58;;;6.00;99.90;;;;;;5071725;28;20407;-72
2021/12/06 09:02:18;;;;;;;140.10;48.50;;;6.00;99.90;;;;;;5074155;28;20421;-74
2021/12/06 09:04:44;;;;;;;122.50;46.67;;;6.00;99.90;;;;;;5076332;28;20446;-70
2021/12/06 09:07:13;;;;;;;140.93;47.15;;;6.00;99.90;;;;;;5074875;28;20484;-74
2021/12/06 09:09:46;;;;;;;170.77;46.13;;;6.00;99.90;;;;;;5052407;28;20461;-69
2021/12/06 09:12:18;;;;;;;125.88;45.03;;;5.90;99.90;;;;;;5074248;28;20409;-72
2021/12/06 09:14:44;;;;;;;139.65;46.28;;;5.90;99.90;;;;;;5077777;28;20804;-71
2021/12/06 09:17:09;;;;;;;139.53;46.70;;;5.90;99.90;;;;;;5072082;28;20408;-71
2021/12/06 09:19:35;;;;;;;134.52;47.60;;;5.90;99.90;;;;;;5072549;28;20417;-75
2021/12/06 09:22:02;;;;;;;137.68;49.08;;;5.90;99.90;;;;;;5071182;28;20415;-71
2021/12/06 09:24:28;;;;;;;134.20;49.50;;;6.00;99.90;;;;;;5074744;28;20421;-74
2021/12/06 09:26:53;;;;;;;116.32;47.13;;;6.00;99.90;;;;;;5077260;28;20414;-73
2021/12/06 09:29:19;;;;;;;164.57;50.37;;;6.10;99.90;;;;;;5077957;28;20926;-72
2021/12/06 09:31:45;;;;;;;150.90;49.13;;;6.20;99.90;;;;;;5067315;28;20450;-71
2021/12/06 09:34:11;;;;;;;127.38;48.50;;;6.20;99.90;;;;;;5079423;28;20415;-73
2021/12/06 09:36:38;;;;;;;153.85;46.40;;;6.20;99.90;;;;;;5068917;28;20463;-73
2021/12/06 09:39:06;;;;;;;187.23;44.40;;;6.20;99.90;;;;;;5065856;28;20423;-70
2021/12/06 09:41:31;;;;;;;134.43;46.75;;;6.20;99.90;;;;;;5057221;28;20425;-71
2021/12/06 09:44:00;;;;;;;143.45;45.30;;;6.10;99.90;;;;;;5063524;28;20461;-72
2021/12/06 09:46:28;;;;;;;181.32;44.78;;;6.10;99.90;;;;;;5060816;28;20416;-71
2021/12/06 09:48:55;;;;;;;128.00;45.25;;;6.00;99.90;;;;;;5064213;28;20412;-71
2021/12/06 09:51:25;;;;;;;125.83;43.33;;;6.00;99.90;;;;;;5062932;28;20408;-74
2021/12/06 09:53:53;;;;;;;115.22;44.65;;;6.00;99.90;;;;;;5077308;28;20802;-74
2021/12/06 09:56:23;;;;;;;117.43;43.03;;;5.90;99.90;;;;;;5064537;28;20439;-72
2021/12/06 09:58:50;;;;;;;100.47;44.45;;;6.00;99.90;;;;;;5067388;28;20406;-72
2021/12/06 10:01:22;;;;;;;112.88;44.65;;;6.00;99.90;;;;;;5041328;28;20939;-73
2021/12/06 10:03:49;;;;;;;109.78;45.05;;;6.00;99.90;;;;;;5077395;28;20802;-71
2021/12/06 10:06:18;;;;;;;104.18;44.95;;;6.00;99.90;;;;;;5065332;28;20403;-69
2021/12/06 10:08:49;;;;;;;109.53;45.13;;;6.00;99.90;;;;;;5062955;28;20888;-70
2021/12/06 10:11:16;;;;;;;105.38;46.53;;;6.10;99.90;;;;;;5065288;28;20407;-71
2021/12/06 10:13:43;;;;;;;97.97;44.85;;;6.10;99.90;;;;;;5061449;28;20438;-71
2021/12/06 10:16:09;;;;;;;101.90;48.03;;;6.20;99.90;;;;;;5067732;28;20487;-71
2021/12/06 10:18:35;;;;;;;102.13;47.38;;;6.10;99.90;;;;;;5060949;28;20453;-74
2021/12/06 10:21:02;;;;;;;104.27;48.03;;;6.20;99.90;;;;;;5039379;28;20524;-74
2021/12/06 10:23:28;;;;;;;106.75;47.58;;;6.20;99.90;;;;;;5058141;28;20888;-72
2021/12/06 10:25:56;;;;;;;111.18;49.30;;;6.20;99.90;;;;;;5063373;28;20435;-73
2021/12/06 10:28:25;;;;;;;113.88;50.97;;;6.20;99.90;;;;;;5075832;28;20419;-73
2021/12/06 10:30:56;;;;;;;115.57;50.30;;;6.20;99.90;;;;;;5063722;28;20410;-74
2021/12/06 10:33:27;;;;;;;112.80;50.13;;;6.20;99.90;;;;;;5060794;28;20441;-72
2021/12/06 10:35:56;;;;;;;118.78;51.80;;;6.30;99.90;;;;;;5042475;28;20421;-72
2021/12/06 10:38:33;;;;;;;123.25;52.20;;;6.30;99.90;;;;;;5060038;28;20527;-73
2021/12/06 10:41:12;;;;;;;117.95;50.88;;;6.30;99.90;;;;;;5076332;28;20453;-73
2021/12/06 10:43:38;;;;;;;121.22;51.92;;;6.30;99.90;;;;;;5078460;28;20454;-72
2021/12/06 10:46:06;;;;;;;121.38;51.15;;;6.40;99.90;;;;;;5076473;28;20415;-71
2021/12/06 10:48:37;;;;;;;115.45;51.25;;;6.40;99.90;;;;;;5069984;28;20884;-72
2021/12/06 10:51:07;;;;;;;122.22;53.40;;;6.40;99.90;;;;;;5080192;28;20411;-70
2021/12/06 10:53:45;;;;;;;122.97;53.28;;;6.50;99.90;;;;;;5068180;28;20472;-71
2021/12/06 10:56:21;;;;;;;116.05;51.85;;;6.50;99.90;;;;;;5047678;28;20427;-69
2021/12/06 10:58:50;;;;;;;122.07;52.75;;;6.50;99.90;;;;;;5070407;28;20807;-69
2021/12/06 11:01:31;;;;;;;116.32;52.83;;;6.50;99.90;;;;;;5070082;28;20438;-74
2021/12/06 11:03:59;;;;;;;116.33;51.63;;;6.50;99.90;;;;;;5071201;28;20414;-71
2021/12/06 11:06:30;;;;;;;107.55;50.33;;;6.60;99.90;;;;;;5071753;28;20450;-70
2021/12/06 11:08:58;;;;;;;108.95;51.05;;;6.60;99.90;;;;;;5073068;28;20785;-71
2021/12/06 11:11:29;;;;;;;99.88;48.92;;;6.60;99.90;;;;;;5075288;28;20413;-73
2021/12/06 11:14:02;;;;;;;94.90;46.80;;;6.70;99.90;;;;;;5069617;28;20407;-72
2021/12/06 11:16:31;;;;;;;91.15;46.67;;;6.80;99.90;;;;;;5075771;28;20449;-72
2021/12/06 11:19:04;;;;;;;94.93;47.60;;;6.90;99.90;;;;;;5069734;28;20412;-72
2021/12/06 11:21:41;;;;;;;84.20;44.95;;;7.00;99.90;;;;;;5071612;28;20443;-70
2021/12/06 11:24:15;;;;;;;76.83;42.57;;;7.10;99.90;;;;;;5076371;28;20503;-73
2021/12/06 11:26:53;;;;;;;76.97;41.90;;;7.10;99.90;;;;;;5069936;28;20427;-70
2021/12/06 11:29:23;;;;;;;75.60;42.22;;;7.20;99.90;;;;;;5071630;28;20422;-70
2021/12/06 11:32:17;;;;;;;73.63;40.83;;;7.20;99.90;;;;;;5072784;28;20415;-71
2021/12/06 11:35:04;;;;;;;72.03;39.75;;;7.20;99.90;;;;;;5069858;28;20439;-70
2021/12/06 11:37:46;;;;;;;72.53;40.85;;;7.30;99.90;;;;;;5069869;28;20757;-73
2021/12/06 11:40:30;;;;;;;71.10;40.30;;;7.30;99.90;;;;;;5081949;28;20418;-73
2021/12/06 11:43:00;;;;;;;71.07;39.30;;;7.40;99.90;;;;;;5080280;28;20418;-70
2021/12/06 11:45:46;;;;;;;69.05;38.67;;;7.40;99.90;;;;;;5071449;28;20408;-71
2021/12/06 11:48:18;;;;;;;67.55;39.00;;;7.40;99.90;;;;;;5074039;28;20411;-73
2021/12/06 11:50:50;;;;;;;68.43;38.35;;;7.40;99.90;;;;;;5069833;28;20434;-74
2021/12/06 11:53:23;;;;;;;71.18;39.47;;;7.30;99.90;;;;;;5066446;28;20429;-73
2021/12/06 11:56:02;;;;;;;64.00;36.35;;;7.30;99.90;;;;;;5076231;28;20420;-71
2021/12/06 11:58:35;;;;;;;66.20;37.30;;;7.20;99.90;;;;;;5078127;28;20514;-72
2021/12/06 12:01:13;;;;;;;64.35;35.90;;;7.10;99.90;;;;;;5077682;28;20428;-73
2021/12/06 12:03:42;;;;;;;66.18;36.85;;;7.00;99.90;;;;;;5081853;28;20835;-74
2021/12/06 12:06:33;;;;;;;64.57;36.15;;;7.00;99.90;;;;;;5074441;28;20419;-71
2021/12/06 12:09:17;;;;;;;63.08;36.55;;;6.90;99.90;;;;;;5072101;28;20418;-71
2021/12/06 12:11:57;;;;;;;70.85;38.53;;;6.80;99.90;;;;;;5073804;28;20419;-72
2021/12/06 12:14:28;;;;;;;64.95;37.40;;;6.80;99.90;;;;;;5078048;28;20401;-72
2021/12/06 12:16:54;;;;;;;66.95;37.88;;;6.80;99.90;;;;;;5071490;28;20445;-71
2021/12/06 12:19:20;;;;;;;66.72;37.85;;;6.80;99.90;;;;;;5068185;28;20482;-72
2021/12/06 12:21:47;;;;;;;67.68;37.83;;;6.80;99.90;;;;;;5074012;28;20404;-72
2021/12/06 12:24:12;;;;;;;66.72;36.83;;;6.80;99.90;;;;;;5069487;28;20447;-72
2021/12/06 12:26:50;;;;;;;67.10;38.30;;;6.80;99.90;;;;;;5075431;28;20503;-73
2021/12/06 12:29:23;;;;;;;68.20;37.05;;;6.80;99.90;;;;;;5074980;28;20913;-71
2021/12/06 12:31:51;;;;;;;66.38;36.92;;;6.80;99.90;;;;;;5068296;28;20578;-73
2021/12/06 12:34:18;;;;;;;68.10;37.75;;;6.90;99.90;;;;;;5077291;28;20408;-73
2021/12/06 12:36:44;;;;;;;71.13;38.30;;;6.90;99.90;;;;;;5073724;28;20502;-72
2021/12/06 12:39:19;;;;;;;69.30;38.75;;;6.90;99.90;;;;;;5079067;28;20489;-73
2021/12/06 12:41:58;;;;;;;73.85;40.10;;;6.80;99.90;;;;;;5062679;28;20750;-72
2021/12/06 12:44:48;;;;;;;68.55;37.58;;;6.90;99.90;;;;;;5066220;28;20506;-74
2021/12/06 12:47:20;;;;;;;62.20;34.33;;;6.90;99.90;;;;;;5052524;28;20865;-72
2021/12/06 12:49:52;;;;;;;61.13;34.08;;;6.90;99.90;;;;;;5061895;28;21013;-72
2021/12/06 12:52:41;;;;;;;64.95;35.28;;;6.90;99.90;;;;;;5060695;28;20547;-71
2021/12/06 12:55:30;;;;;;;65.90;35.45;;;6.80;99.90;;;;;;5021854;28;20418;-71
2021/12/06 12:58:17;;;;;;;65.38;35.67;;;6.90;99.90;;;;;;5053184;28;20500;-71